createdAt,value
2022-11-27T00:00:30.711Z,0
2022-11-27T00:01:34.019Z,0
2022-11-27T00:02:40.510Z,0
2022-11-27T00:03:45.234Z,0
2022-11-27T00:04:51.247Z,0
2022-11-27T00:05:55.670Z,0
2022-11-27T00:06:59.398Z,0
2022-11-27T00:08:02.122Z,0
2022-11-27T00:09:05.560Z,0
2022-11-27T00:10:09.265Z,0
2022-11-27T00:11:12.313Z,0
2022-11-27T00:12:15.091Z,0
2022-11-27T00:13:18.222Z,0
2022-11-27T00:14:21.033Z,0
2022-11-27T00:15:24.515Z,0
2022-11-27T00:16:28.180Z,0
2022-11-27T00:17:31.776Z,0
2022-11-27T00:18:35.039Z,0
2022-11-27T00:19:38.920Z,0
2022-11-27T00:20:43.578Z,0
2022-11-27T00:21:47.333Z,0
2022-11-27T00:22:50.378Z,0
2022-11-27T00:23:53.932Z,0
2022-11-27T00:24:57.109Z,0
2022-11-27T00:26:00.219Z,0
2022-11-27T00:27:02.622Z,0
2022-11-27T00:28:05.715Z,0
2022-11-27T00:29:09.308Z,0
2022-11-27T00:30:12.264Z,0
2022-11-27T00:31:15.333Z,0
2022-11-27T00:32:18.523Z,0
2022-11-27T00:33:21.643Z,0
2022-11-27T00:34:24.701Z,0
2022-11-27T00:35:28.093Z,0
2022-11-27T00:36:30.772Z,0
2022-11-27T00:37:34.647Z,0
2022-11-27T00:38:39.088Z,0
2022-11-27T00:39:42.761Z,0
2022-11-27T00:40:45.616Z,0
2022-11-27T00:41:48.648Z,0
2022-11-27T00:42:52.667Z,0
2022-11-27T00:43:56.046Z,0
2022-11-27T00:44:59.113Z,0
2022-11-27T00:46:02.285Z,0
2022-11-27T00:47:06.054Z,0
2022-11-27T00:48:09.543Z,0
2022-11-27T00:49:13.127Z,0
2022-11-27T00:50:15.668Z,0
2022-11-27T00:51:18.711Z,0
2022-11-27T00:52:21.177Z,0
2022-11-27T00:53:24.783Z,0
2022-11-27T00:54:28.219Z,0
2022-11-27T00:55:30.743Z,0
2022-11-27T00:56:33.798Z,0
2022-11-27T00:57:36.300Z,0
2022-11-27T00:58:38.875Z,0
2022-11-27T00:59:40.734Z,0
2022-11-27T01:00:43.866Z,0
2022-11-27T01:01:46.893Z,0
2022-11-27T01:02:50.179Z,0
2022-11-27T01:03:53.410Z,0
2022-11-27T01:04:56.859Z,0
2022-11-27T01:05:59.692Z,0
2022-11-27T01:07:03.396Z,0
2022-11-27T01:08:06.649Z,0
2022-11-27T01:09:09.836Z,0
2022-11-27T01:10:11.980Z,0
2022-11-27T01:11:14.472Z,0
2022-11-27T01:12:17.235Z,0
2022-11-27T01:13:20.658Z,0
2022-11-27T01:14:23.396Z,0
2022-11-27T01:15:26.095Z,0
2022-11-27T01:16:29.507Z,0
2022-11-27T01:17:33.117Z,0
2022-11-27T01:18:36.272Z,0
2022-11-27T01:19:39.048Z,0
2022-11-27T01:20:42.097Z,0
2022-11-27T01:21:45.129Z,0
2022-11-27T01:22:48.602Z,0
2022-11-27T01:23:51.407Z,0
2022-11-27T01:24:55.482Z,0
2022-11-27T01:25:58.977Z,0
2022-11-27T01:27:01.205Z,0
2022-11-27T01:28:03.912Z,0
2022-11-27T01:29:06.618Z,0
2022-11-27T01:30:09.672Z,0
2022-11-27T01:31:12.869Z,0
2022-11-27T01:32:15.681Z,0
2022-11-27T01:33:19.467Z,0
2022-11-27T01:34:22.276Z,0
2022-11-27T01:35:25.176Z,0
2022-11-27T01:36:28.225Z,0
2022-11-27T01:37:31.236Z,0
2022-11-27T01:38:33.724Z,0
2022-11-27T01:39:36.747Z,0
2022-11-27T01:40:40.858Z,0
2022-11-27T01:41:44.203Z,0
2022-11-27T01:42:46.698Z,0
2022-11-27T01:43:49.953Z,0
2022-11-27T01:44:52.805Z,0
2022-11-27T01:45:55.883Z,0
2022-11-27T01:46:59.678Z,0
2022-11-27T01:48:02.718Z,0
2022-11-27T01:49:05.209Z,0
2022-11-27T01:50:08.188Z,0
2022-11-27T01:51:10.116Z,0
2022-11-27T01:52:13.206Z,0
2022-11-27T01:53:16.088Z,0
2022-11-27T01:54:19.062Z,0
2022-11-27T01:55:22.437Z,0
2022-11-27T01:56:26.214Z,0
2022-11-27T01:57:29.634Z,0
2022-11-27T01:58:32.693Z,0
2022-11-27T01:59:35.822Z,0
2022-11-27T02:00:38.583Z,0
2022-11-27T02:01:41.680Z,0
2022-11-27T02:02:44.918Z,0
2022-11-27T02:03:48.817Z,0
2022-11-27T02:04:51.792Z,0
2022-11-27T02:05:54.918Z,0
2022-11-27T02:06:58.327Z,0
2022-11-27T02:08:01.620Z,0
2022-11-27T02:09:04.867Z,0
2022-11-27T02:10:08.194Z,0
2022-11-27T02:11:10.949Z,0
2022-11-27T02:12:14.219Z,0
2022-11-27T02:13:17.350Z,0
2022-11-27T02:14:20.205Z,0
2022-11-27T02:15:22.975Z,0
2022-11-27T02:16:25.434Z,0
2022-11-27T02:17:28.536Z,0
2022-11-27T02:18:30.475Z,0
2022-11-27T02:19:33.646Z,0
2022-11-27T02:20:35.590Z,0
2022-11-27T02:21:38.314Z,0
2022-11-27T02:22:41.282Z,0
2022-11-27T02:23:43.977Z,0
2022-11-27T02:24:47.050Z,0
2022-11-27T02:25:49.746Z,0
2022-11-27T02:26:53.378Z,0
2022-11-27T02:27:56.073Z,0
2022-11-27T02:28:59.004Z,0
2022-11-27T02:30:02.726Z,0
2022-11-27T02:31:05.477Z,0
2022-11-27T02:32:09.261Z,0
2022-11-27T02:33:11.864Z,0
2022-11-27T02:34:13.998Z,0
2022-11-27T02:35:17.090Z,0
2022-11-27T02:36:20.413Z,0
2022-11-27T02:37:23.475Z,0
2022-11-27T02:38:26.825Z,0
2022-11-27T02:39:30.618Z,0
2022-11-27T02:40:33.697Z,0
2022-11-27T02:41:36.749Z,0
2022-11-27T02:42:40.007Z,0
2022-11-27T02:43:44.764Z,0
2022-11-27T02:44:47.352Z,0
2022-11-27T02:45:50.324Z,0
2022-11-27T02:46:53.279Z,0
2022-11-27T02:47:56.842Z,0
2022-11-27T02:48:59.538Z,0
2022-11-27T02:50:02.973Z,0
2022-11-27T02:51:06.134Z,0
2022-11-27T02:52:08.716Z,0
2022-11-27T02:53:11.211Z,0
2022-11-27T02:54:14.251Z,0
2022-11-27T02:55:16.761Z,0
2022-11-27T02:56:20.177Z,0
2022-11-27T02:57:23.664Z,0
2022-11-27T02:58:27.191Z,0
2022-11-27T02:59:31.926Z,0
2022-11-27T03:00:34.072Z,0
2022-11-27T03:01:37.186Z,0
2022-11-27T03:02:41.106Z,0
2022-11-27T03:03:44.614Z,0
2022-11-27T03:04:47.104Z,0
2022-11-27T03:05:50.272Z,0
2022-11-27T03:06:53.728Z,0
2022-11-27T03:07:56.030Z,0
2022-11-27T03:08:59.426Z,0
2022-11-27T03:10:02.818Z,0
2022-11-27T03:11:05.804Z,0
2022-11-27T03:12:08.583Z,0
2022-11-27T03:13:11.714Z,0
2022-11-27T03:14:15.119Z,0
2022-11-27T03:15:19.930Z,0
2022-11-27T03:16:23.202Z,0
2022-11-27T03:17:26.739Z,0
2022-11-27T03:18:29.715Z,0
2022-11-27T03:19:32.412Z,0
2022-11-27T03:20:35.890Z,0
2022-11-27T03:21:38.192Z,0
2022-11-27T03:22:41.251Z,0
2022-11-27T03:23:44.371Z,0
2022-11-27T03:24:47.760Z,0
2022-11-27T03:25:50.525Z,0
2022-11-27T03:26:52.942Z,0
2022-11-27T03:27:55.799Z,0
2022-11-27T03:28:58.377Z,0
2022-11-27T03:30:01.644Z,0
2022-11-27T03:31:12.250Z,0
2022-11-27T03:32:16.413Z,0
2022-11-27T03:33:18.977Z,0
2022-11-27T03:34:22.055Z,0
2022-11-27T03:35:24.693Z,0
2022-11-27T03:36:27.700Z,0
2022-11-27T03:37:30.116Z,0
2022-11-27T03:38:33.251Z,0
2022-11-27T03:39:36.023Z,0
2022-11-27T03:40:38.441Z,0
2022-11-27T03:41:41.419Z,0
2022-11-27T03:42:44.114Z,0
2022-11-27T03:43:46.406Z,0
2022-11-27T03:44:49.460Z,0
2022-11-27T03:45:51.816Z,0
2022-11-27T03:47:02.375Z,0
2022-11-27T03:48:11.000Z,0
2022-11-27T03:49:14.300Z,0
2022-11-27T03:50:17.214Z,0
2022-11-27T03:51:19.980Z,0
2022-11-27T03:52:23.046Z,0
2022-11-27T03:53:26.119Z,0
2022-11-27T03:54:28.944Z,0
2022-11-27T03:55:32.056Z,0
2022-11-27T03:56:34.552Z,0
2022-11-27T03:57:37.117Z,0
2022-11-27T03:58:40.093Z,0
2022-11-27T03:59:42.641Z,0
2022-11-27T04:00:45.682Z,0
2022-11-27T04:01:48.948Z,0
2022-11-27T04:02:53.897Z,0
2022-11-27T04:03:57.099Z,0
2022-11-27T04:05:01.156Z,0
2022-11-27T04:06:04.585Z,0
2022-11-27T04:07:07.555Z,0
2022-11-27T04:08:09.483Z,0
2022-11-27T04:09:12.800Z,0
2022-11-27T04:10:15.308Z,0
2022-11-27T04:11:18.281Z,0
2022-11-27T04:12:20.719Z,0
2022-11-27T04:13:23.216Z,0
2022-11-27T04:14:25.710Z,0
2022-11-27T04:15:28.131Z,0
2022-11-27T04:16:30.959Z,0
2022-11-27T04:17:33.843Z,0
2022-11-27T04:18:38.104Z,0
2022-11-27T04:19:41.559Z,0
2022-11-27T04:20:43.862Z,0
2022-11-27T04:21:47.215Z,0
2022-11-27T04:22:49.823Z,0
2022-11-27T04:23:53.539Z,0
2022-11-27T04:24:56.604Z,0
2022-11-27T04:25:59.024Z,0
2022-11-27T04:27:02.395Z,0
2022-11-27T04:28:05.461Z,0
2022-11-27T04:29:08.715Z,0
2022-11-27T04:30:12.395Z,0
2022-11-27T04:31:15.199Z,0
2022-11-27T04:32:18.572Z,0
2022-11-27T04:33:21.111Z,0
2022-11-27T04:34:25.322Z,0
2022-11-27T04:35:28.561Z,0
2022-11-27T04:36:33.558Z,0
2022-11-27T04:37:42.085Z,0
2022-11-27T04:38:45.236Z,0
2022-11-27T04:39:48.003Z,0
2022-11-27T04:40:51.140Z,0
2022-11-27T04:41:54.264Z,0
2022-11-27T04:42:56.970Z,0
2022-11-27T04:44:00.605Z,0
2022-11-27T04:45:02.824Z,0
2022-11-27T04:46:05.607Z,0
2022-11-27T04:47:09.182Z,0
2022-11-27T04:48:12.170Z,0
2022-11-27T04:49:15.353Z,0
2022-11-27T04:50:19.671Z,0
2022-11-27T04:51:22.211Z,0
2022-11-27T04:52:26.299Z,0
2022-11-27T04:53:29.054Z,0
2022-11-27T04:54:31.757Z,0
2022-11-27T04:55:34.253Z,0
2022-11-27T04:56:37.217Z,0
2022-11-27T04:57:40.258Z,0
2022-11-27T04:58:43.305Z,0
2022-11-27T04:59:46.152Z,0
2022-11-27T05:00:49.280Z,0
2022-11-27T05:01:52.331Z,0
2022-11-27T05:02:55.316Z,0
2022-11-27T05:03:59.682Z,0
2022-11-27T05:05:02.346Z,0
2022-11-27T05:06:12.372Z,0
2022-11-27T05:07:15.478Z,0
2022-11-27T05:08:19.063Z,0
2022-11-27T05:09:21.814Z,0
2022-11-27T05:10:24.355Z,0
2022-11-27T05:11:27.049Z,0
2022-11-27T05:12:30.452Z,0
2022-11-27T05:13:33.802Z,0
2022-11-27T05:14:36.322Z,0
2022-11-27T05:15:39.877Z,0
2022-11-27T05:16:43.391Z,0
2022-11-27T05:17:46.361Z,0
2022-11-27T05:18:49.057Z,0
2022-11-27T05:19:51.755Z,0
2022-11-27T05:20:54.553Z,0
2022-11-27T05:21:58.344Z,0
2022-11-27T05:23:01.128Z,0
2022-11-27T05:24:04.312Z,0
2022-11-27T05:25:06.876Z,0
2022-11-27T05:26:09.947Z,0
2022-11-27T05:27:12.167Z,0
2022-11-27T05:28:14.390Z,0
2022-11-27T05:29:18.017Z,0
2022-11-27T05:30:20.392Z,0
2022-11-27T05:31:22.950Z,0
2022-11-27T05:32:26.820Z,0
2022-11-27T05:33:29.879Z,0
2022-11-27T05:34:32.648Z,0
2022-11-27T05:35:35.695Z,0
2022-11-27T05:36:38.230Z,0
2022-11-27T05:37:42.196Z,0
2022-11-27T05:38:51.886Z,0
2022-11-27T05:40:01.285Z,0
2022-11-27T05:41:05.449Z,0
2022-11-27T05:42:07.864Z,0
2022-11-27T05:43:10.280Z,0
2022-11-27T05:44:12.494Z,0
2022-11-27T05:45:15.262Z,0
2022-11-27T05:46:18.457Z,0
2022-11-27T05:47:21.833Z,0
2022-11-27T05:48:24.811Z,0
2022-11-27T05:49:28.174Z,0
2022-11-27T05:50:30.597Z,0
2022-11-27T05:51:34.207Z,0
2022-11-27T05:52:37.304Z,0
2022-11-27T05:53:41.752Z,0
2022-11-27T05:54:44.647Z,0
2022-11-27T05:55:47.906Z,0
2022-11-27T05:56:51.071Z,0
2022-11-27T05:57:54.314Z,0
2022-11-27T05:58:56.913Z,0
2022-11-27T05:59:59.765Z,0
2022-11-27T06:01:02.290Z,0
2022-11-27T06:02:05.334Z,0
2022-11-27T06:03:08.885Z,0
2022-11-27T06:04:12.335Z,0
2022-11-27T06:05:15.312Z,0
2022-11-27T06:06:18.359Z,0
2022-11-27T06:07:21.922Z,0
2022-11-27T06:08:25.524Z,0
2022-11-27T06:09:29.935Z,0
2022-11-27T06:10:32.556Z,0
2022-11-27T06:11:35.442Z,0
2022-11-27T06:12:38.664Z,0
2022-11-27T06:13:41.811Z,0
2022-11-27T06:14:45.129Z,0
2022-11-27T06:15:47.983Z,0
2022-11-27T06:16:50.826Z,0
2022-11-27T06:17:53.347Z,0
2022-11-27T06:18:55.834Z,4
2022-11-27T06:19:58.609Z,0
2022-11-27T06:21:01.654Z,0
2022-11-27T06:22:04.359Z,4
2022-11-27T06:23:07.058Z,4
2022-11-27T06:24:09.680Z,0
2022-11-27T06:25:13.250Z,4
2022-11-27T06:26:16.415Z,4
2022-11-27T06:27:19.668Z,4
2022-11-27T06:28:22.329Z,4
2022-11-27T06:29:24.826Z,8
2022-11-27T06:30:28.231Z,8
2022-11-27T06:31:31.899Z,8
2022-11-27T06:32:35.849Z,12
2022-11-27T06:33:38.718Z,12
2022-11-27T06:34:41.984Z,12
2022-11-27T06:35:44.565Z,16
2022-11-27T06:36:48.259Z,24
2022-11-27T06:37:51.384Z,24
2022-11-27T06:38:54.811Z,28
2022-11-27T06:39:58.337Z,36
2022-11-27T06:41:02.180Z,40
2022-11-27T06:42:05.073Z,48
2022-11-27T06:43:07.882Z,56
2022-11-27T06:44:10.826Z,64
2022-11-27T06:45:14.477Z,68
2022-11-27T06:46:16.783Z,84
2022-11-27T06:47:20.408Z,92
2022-11-27T06:48:23.173Z,108
2022-11-27T06:49:26.238Z,112
2022-11-27T06:50:29.296Z,124
2022-11-27T06:51:32.450Z,128
2022-11-27T06:52:40.096Z,128
2022-11-27T06:53:43.606Z,156
2022-11-27T06:54:46.960Z,168
2022-11-27T06:55:49.692Z,184
2022-11-27T06:56:53.753Z,188
2022-11-27T06:57:56.086Z,204
2022-11-27T06:58:58.692Z,236
2022-11-27T07:00:01.935Z,244
2022-11-27T07:01:04.443Z,272
2022-11-27T07:02:08.174Z,292
2022-11-27T07:03:11.328Z,300
2022-11-27T07:04:14.656Z,344
2022-11-27T07:05:17.712Z,392
2022-11-27T07:06:20.128Z,412
2022-11-27T07:07:22.995Z,440
2022-11-27T07:08:25.751Z,488
2022-11-27T07:09:29.377Z,492
2022-11-27T07:10:32.142Z,564
2022-11-27T07:11:35.402Z,616
2022-11-27T07:12:39.236Z,660
2022-11-27T07:13:47.563Z,676
2022-11-27T07:14:51.199Z,704
2022-11-27T07:15:54.124Z,748
2022-11-27T07:16:57.121Z,828
2022-11-27T07:18:00.473Z,820
2022-11-27T07:19:03.173Z,948
2022-11-27T07:20:06.173Z,1012
2022-11-27T07:21:09.145Z,1040
2022-11-27T07:22:11.721Z,1188
2022-11-27T07:23:14.523Z,1220
2022-11-27T07:24:17.027Z,1340
2022-11-27T07:25:19.609Z,1428
2022-11-27T07:26:23.021Z,1576
2022-11-27T07:27:25.829Z,1704
2022-11-27T07:28:29.952Z,1720
2022-11-27T07:29:32.537Z,1760
2022-11-27T07:30:35.337Z,1916
2022-11-27T07:31:38.827Z,1960
2022-11-27T07:32:41.655Z,1988
2022-11-27T07:33:44.630Z,2128
2022-11-27T07:34:47.410Z,2320
2022-11-27T07:35:50.283Z,2444
2022-11-27T07:36:53.391Z,2608
2022-11-27T07:37:56.045Z,2892
2022-11-27T07:38:58.814Z,2852
2022-11-27T07:40:03.167Z,2988
2022-11-27T07:41:06.212Z,3020
2022-11-27T07:42:36.730Z,3492
2022-11-27T07:43:42.879Z,3492
2022-11-27T07:44:46.580Z,3528
2022-11-27T07:45:49.973Z,3924
2022-11-27T07:46:53.547Z,3792
2022-11-27T07:47:57.181Z,4624
2022-11-27T07:49:00.304Z,4404
2022-11-27T07:50:02.991Z,4392
2022-11-27T07:51:06.076Z,4640
2022-11-27T07:52:09.395Z,4424
2022-11-27T07:53:12.383Z,4784
2022-11-27T07:54:14.610Z,5008
2022-11-27T07:55:17.131Z,4824
2022-11-27T07:56:20.838Z,4936
2022-11-27T07:57:24.503Z,4860
2022-11-27T07:58:27.560Z,5604
2022-11-27T07:59:31.807Z,5116
2022-11-27T08:00:35.268Z,5252
2022-11-27T08:01:38.715Z,5152
2022-11-27T08:02:42.177Z,4144
2022-11-27T08:03:44.418Z,3880
2022-11-27T08:04:47.712Z,3872
2022-11-27T08:05:50.511Z,3928
2022-11-27T08:06:53.640Z,4212
2022-11-27T08:07:56.945Z,3800
2022-11-27T08:09:00.717Z,4056
2022-11-27T08:10:03.538Z,4840
2022-11-27T08:11:06.376Z,4240
2022-11-27T08:12:08.964Z,4340
2022-11-27T08:13:11.748Z,4116
2022-11-27T08:14:14.569Z,4460
2022-11-27T08:15:18.557Z,3772
2022-11-27T08:16:22.001Z,4412
2022-11-27T08:17:26.207Z,3672
2022-11-27T08:18:29.899Z,3524
2022-11-27T08:19:32.125Z,3536
2022-11-27T08:20:34.905Z,3896
2022-11-27T08:21:37.040Z,3940
2022-11-27T08:22:40.222Z,4212
2022-11-27T08:23:42.971Z,4280
2022-11-27T08:24:45.807Z,3348
2022-11-27T08:25:48.294Z,3192
2022-11-27T08:26:50.788Z,3228
2022-11-27T08:27:53.039Z,3728
2022-11-27T08:28:56.724Z,4388
2022-11-27T08:29:59.227Z,3620
2022-11-27T08:31:03.220Z,3584
2022-11-27T08:32:06.140Z,3688
2022-11-27T08:33:10.024Z,3756
2022-11-27T08:34:13.172Z,4168
2022-11-27T08:35:15.677Z,4084
2022-11-27T08:36:19.299Z,4060
2022-11-27T08:37:22.734Z,5136
2022-11-27T08:38:26.186Z,4640
2022-11-27T08:39:29.346Z,4068
2022-11-27T08:40:32.398Z,3912
2022-11-27T08:41:35.826Z,3712
2022-11-27T08:42:39.229Z,4000
2022-11-27T08:43:42.558Z,4480
2022-11-27T08:44:45.325Z,3776
2022-11-27T08:45:48.648Z,3836
2022-11-27T08:46:52.929Z,3956
2022-11-27T08:47:56.261Z,4032
2022-11-27T08:48:59.596Z,4440
2022-11-27T08:50:02.516Z,3980
2022-11-27T08:51:05.288Z,3616
2022-11-27T08:52:08.225Z,4500
2022-11-27T08:53:11.344Z,4176
2022-11-27T08:54:14.045Z,3912
2022-11-27T08:55:17.467Z,4920
2022-11-27T08:56:19.682Z,4208
2022-11-27T08:57:22.457Z,4924
2022-11-27T08:58:26.063Z,4288
2022-11-27T08:59:28.489Z,5628
2022-11-27T09:00:30.905Z,6096
2022-11-27T09:01:33.772Z,4368
2022-11-27T09:02:38.035Z,6676
2022-11-27T09:03:41.193Z,5244
2022-11-27T09:04:44.810Z,5460
2022-11-27T09:05:48.595Z,5268
2022-11-27T09:06:55.357Z,5164
2022-11-27T09:08:01.555Z,6228
2022-11-27T09:09:04.980Z,4304
2022-11-27T09:10:08.587Z,4396
2022-11-27T09:11:12.102Z,5192
2022-11-27T09:12:14.796Z,4144
2022-11-27T09:13:17.580Z,4276
2022-11-27T09:14:20.366Z,4016
2022-11-27T09:15:23.697Z,5012
2022-11-27T09:16:26.874Z,4712
2022-11-27T09:17:30.710Z,4280
2022-11-27T09:18:34.664Z,4216
2022-11-27T09:19:38.353Z,4720
2022-11-27T09:20:41.622Z,4300
2022-11-27T09:21:44.842Z,4568
2022-11-27T09:22:48.255Z,5916
2022-11-27T09:23:50.690Z,5020
2022-11-27T09:24:54.017Z,6268
2022-11-27T09:25:57.715Z,5860
2022-11-27T09:27:00.810Z,6060
2022-11-27T09:28:03.692Z,5872
2022-11-27T09:29:06.741Z,5428
2022-11-27T09:30:09.259Z,6008
2022-11-27T09:31:12.400Z,6564
2022-11-27T09:32:15.131Z,6616
2022-11-27T09:33:18.802Z,6288
2022-11-27T09:34:22.785Z,7456
2022-11-27T09:35:26.187Z,6020
2022-11-27T09:36:29.931Z,7516
2022-11-27T09:37:33.414Z,8116
2022-11-27T09:38:36.105Z,9924
2022-11-27T09:39:38.795Z,8228
2022-11-27T09:40:40.930Z,9256
2022-11-27T09:41:44.424Z,7952
2022-11-27T09:42:47.504Z,10148
2022-11-27T09:43:50.743Z,8804
2022-11-27T09:44:53.232Z,9000
2022-11-27T09:45:56.487Z,9344
2022-11-27T09:46:59.813Z,11248
2022-11-27T09:48:02.876Z,12916
2022-11-27T09:49:05.580Z,11188
2022-11-27T09:50:09.838Z,13256
2022-11-27T09:51:13.166Z,9416
2022-11-27T09:52:16.166Z,9128
2022-11-27T09:53:19.602Z,5980
2022-11-27T09:54:22.304Z,6520
2022-11-27T09:55:25.377Z,6688
2022-11-27T09:56:28.354Z,7212
2022-11-27T09:57:31.202Z,7984
2022-11-27T09:58:34.184Z,7360
2022-11-27T09:59:37.241Z,6204
2022-11-27T10:00:40.670Z,6744
2022-11-27T10:01:49.233Z,5620
2022-11-27T10:02:54.792Z,5420
2022-11-27T10:03:58.637Z,6080
2022-11-27T10:05:17.272Z,7216
2022-11-27T10:06:25.109Z,5620
2022-11-27T10:07:28.882Z,6172
2022-11-27T10:08:32.677Z,7080
2022-11-27T10:09:35.275Z,5856
2022-11-27T10:10:38.319Z,6288
2022-11-27T10:11:41.370Z,5532
2022-11-27T10:12:44.733Z,5964
2022-11-27T10:13:47.883Z,6180
2022-11-27T10:14:51.333Z,6460
2022-11-27T10:15:54.407Z,6472
2022-11-27T10:16:57.154Z,6192
2022-11-27T10:18:00.863Z,5996
2022-11-27T10:19:03.628Z,5788
2022-11-27T10:20:06.784Z,5872
2022-11-27T10:21:10.014Z,5568
2022-11-27T10:22:16.571Z,5564
